createdAt,value
2018-09-13T00:00:25.261Z,17.08
2018-09-13T00:01:25.300Z,17.01
2018-09-13T00:03:18.210Z,16.96
2018-09-13T00:04:18.210Z,16.97
2018-09-13T00:06:11.129Z,16.86
2018-09-13T00:07:11.142Z,16.94
2018-09-13T00:09:04.049Z,16.91
2018-09-13T00:10:04.069Z,16.81
2018-09-13T00:11:56.995Z,16.85
2018-09-13T00:12:56.998Z,16.88
2018-09-13T00:14:49.904Z,16.83
2018-09-13T00:15:49.926Z,16.85
2018-09-13T00:17:42.844Z,16.96
2018-09-13T00:18:42.856Z,16.86
2018-09-13T00:20:36.765Z,16.89
2018-09-13T00:21:36.786Z,16.78
2018-09-13T00:23:29.704Z,16.76
2018-09-13T00:24:29.713Z,16.70
2018-09-13T00:26:22.627Z,16.66
2018-09-13T00:27:22.637Z,16.70
2018-09-13T00:29:15.546Z,16.64
2018-09-13T00:30:15.566Z,16.60
2018-09-13T00:32:08.483Z,16.63
2018-09-13T00:33:08.494Z,16.50
2018-09-13T00:35:01.402Z,16.60
2018-09-13T00:36:01.419Z,16.46
2018-09-13T00:37:54.341Z,16.56
2018-09-13T00:38:54.346Z,16.48
2018-09-13T00:40:47.255Z,16.45
2018-09-13T00:41:47.279Z,16.49
2018-09-13T00:43:40.193Z,16.30
2018-09-13T00:44:40.207Z,16.45
2018-09-13T00:46:33.124Z,16.41
2018-09-13T00:47:33.135Z,16.39
2018-09-13T00:49:26.048Z,16.41
2018-09-13T00:50:26.062Z,16.35
2018-09-13T00:52:18.979Z,16.41
2018-09-13T00:53:18.989Z,16.27
2018-09-13T00:55:11.894Z,16.39
2018-09-13T00:56:11.917Z,16.42
2018-09-13T00:58:04.835Z,16.39
2018-09-13T00:59:04.908Z,16.42
2018-09-13T01:00:57.750Z,16.33
2018-09-13T01:01:57.769Z,16.27
2018-09-13T01:03:50.687Z,16.24
2018-09-13T01:04:50.700Z,16.20
2018-09-13T01:06:43.611Z,16.21
2018-09-13T01:07:43.623Z,16.28
2018-09-13T01:09:36.527Z,16.30
2018-09-13T01:10:36.547Z,16.34
2018-09-13T01:12:29.464Z,16.38
2018-09-13T01:13:29.475Z,16.35
2018-09-13T01:15:22.384Z,16.35
2018-09-13T01:16:22.400Z,16.31
2018-09-13T01:18:15.316Z,16.34
2018-09-13T01:19:15.327Z,16.34
2018-09-13T01:21:08.232Z,16.23
2018-09-13T01:22:08.251Z,16.30
2018-09-13T01:24:01.183Z,16.21
2018-09-13T01:25:01.177Z,16.23
2018-09-13T01:26:54.102Z,16.14
2018-09-13T01:27:54.101Z,16.11
2018-09-13T01:29:47.018Z,16.12
2018-09-13T01:30:47.034Z,16.12
2018-09-13T01:32:39.949Z,16.09
2018-09-13T01:33:39.960Z,16.07
2018-09-13T01:35:32.863Z,16.07
2018-09-13T01:36:32.884Z,16.08
2018-09-13T01:38:25.799Z,16.08
2018-09-13T01:39:25.811Z,16.14
2018-09-13T01:41:18.721Z,16.17
2018-09-13T01:42:18.735Z,16.14
2018-09-13T01:44:11.652Z,16.09
2018-09-13T01:45:11.662Z,16.09
2018-09-13T01:47:04.575Z,16.11
2018-09-13T01:48:04.588Z,16.09
2018-09-13T01:49:57.493Z,16.15
2018-09-13T01:50:57.505Z,16.09
2018-09-13T01:52:50.426Z,16.17
2018-09-13T01:53:50.437Z,16.23
2018-09-13T01:55:43.344Z,16.21
2018-09-13T01:56:43.363Z,16.27
2018-09-13T01:58:36.280Z,16.31
2018-09-13T01:59:36.286Z,16.30
2018-09-13T02:01:29.204Z,16.28
2018-09-13T02:02:29.225Z,16.38
2018-09-13T02:04:22.145Z,16.34
2018-09-13T02:05:22.151Z,16.30
2018-09-13T02:07:15.069Z,16.39
2018-09-13T02:08:15.077Z,16.28
2018-09-13T02:10:07.985Z,16.28
2018-09-13T02:11:08.005Z,16.28
2018-09-13T02:13:00.929Z,16.30
2018-09-13T02:14:00.936Z,16.21
2018-09-13T02:15:53.845Z,16.20
2018-09-13T02:16:53.862Z,16.15
2018-09-13T02:18:46.778Z,16.23
2018-09-13T02:19:46.786Z,16.27
2018-09-13T02:21:39.697Z,16.23
2018-09-13T02:22:39.719Z,16.17
2018-09-13T02:24:32.639Z,16.17
2018-09-13T02:25:32.648Z,16.25
2018-09-13T02:27:25.565Z,16.12
2018-09-13T02:28:25.575Z,16.27
2018-09-13T02:30:18.484Z,16.27
2018-09-13T02:31:18.507Z,16.21
2018-09-13T02:33:11.423Z,16.17
2018-09-13T02:34:11.433Z,16.12
2018-09-13T02:36:04.340Z,16.25
2018-09-13T02:37:04.363Z,16.21
2018-09-13T02:38:57.279Z,16.23
2018-09-13T02:39:57.287Z,16.21
2018-09-13T02:41:50.193Z,16.17
2018-09-13T02:42:50.213Z,16.17
2018-09-13T02:44:43.133Z,16.12
2018-09-13T02:45:43.144Z,16.21
2018-09-13T02:47:36.067Z,16.14
2018-09-13T02:48:36.072Z,16.24
2018-09-13T02:50:28.977Z,16.24
2018-09-13T02:51:28.997Z,16.21
2018-09-13T02:53:21.913Z,16.24
2018-09-13T02:54:21.922Z,16.21
2018-09-13T02:56:14.828Z,16.27
2018-09-13T02:57:14.852Z,16.25
2018-09-13T02:59:07.767Z,16.25
2018-09-13T03:00:07.775Z,16.14
2018-09-13T03:02:00.677Z,16.21
2018-09-13T03:03:00.703Z,16.24
2018-09-13T03:04:53.634Z,16.15
2018-09-13T03:05:53.633Z,16.25
2018-09-13T03:07:46.553Z,16.20
2018-09-13T03:08:46.563Z,16.20
2018-09-13T03:10:39.467Z,16.12
2018-09-13T03:11:39.483Z,16.14
2018-09-13T03:13:32.408Z,16.11
2018-09-13T03:14:32.420Z,16.12
2018-09-13T03:16:25.326Z,16.17
2018-09-13T03:17:25.350Z,16.23
2018-09-13T03:19:18.265Z,16.21
2018-09-13T03:20:18.275Z,16.15
2018-09-13T03:22:11.183Z,16.23
2018-09-13T03:23:11.206Z,16.23
2018-09-13T03:25:04.116Z,16.15
2018-09-13T03:26:04.128Z,16.17
2018-09-13T03:27:57.038Z,16.11
2018-09-13T03:28:57.056Z,16.09
2018-09-13T03:30:49.978Z,16.05
2018-09-13T03:31:49.990Z,16.04
2018-09-13T03:33:42.916Z,16.04
2018-09-13T03:34:42.906Z,16.02
2018-09-13T03:36:35.963Z,15.92
2018-09-13T03:37:35.983Z,16.00
2018-09-13T03:39:28.900Z,15.96
2018-09-13T03:40:28.912Z,15.87
2018-09-13T03:42:21.818Z,15.94
2018-09-13T03:43:21.837Z,16.02
2018-09-13T03:45:14.748Z,15.96
2018-09-13T03:46:14.759Z,16.00
2018-09-13T03:48:07.665Z,15.92
2018-09-13T03:49:07.684Z,15.93
2018-09-13T03:51:01.607Z,15.83
2018-09-13T03:52:01.615Z,16.02
2018-09-13T03:53:54.530Z,15.89
2018-09-13T03:54:54.539Z,16.01
2018-09-13T03:56:47.451Z,16.02
2018-09-13T03:57:47.467Z,16.01
2018-09-13T03:59:40.389Z,16.02
2018-09-13T04:00:40.392Z,16.04
2018-09-13T04:02:33.305Z,15.96
2018-09-13T04:03:33.325Z,15.94
2018-09-13T04:05:26.235Z,15.97
2018-09-13T04:06:26.247Z,15.84
2018-09-13T04:08:19.159Z,15.96
2018-09-13T04:09:19.206Z,16.02
2018-09-13T04:11:12.091Z,16.02
2018-09-13T04:12:12.098Z,15.97
2018-09-13T04:14:05.022Z,16.11
2018-09-13T04:15:05.023Z,16.07
2018-09-13T04:16:57.948Z,15.97
2018-09-13T04:17:57.954Z,15.94
2018-09-13T04:19:50.939Z,15.94
2018-09-13T04:20:50.931Z,15.96
2018-09-13T04:22:43.850Z,15.93
2018-09-13T04:23:43.845Z,15.93
2018-09-13T04:25:36.778Z,16.00
2018-09-13T04:26:36.785Z,15.97
2018-09-13T04:28:29.702Z,16.00
2018-09-13T04:29:29.688Z,16.00
2018-09-13T04:31:22.661Z,16.00
2018-09-13T04:32:22.626Z,15.94
2018-09-13T04:34:15.582Z,15.87
2018-09-13T04:35:15.630Z,15.86
2018-09-13T04:37:08.502Z,15.87
2018-09-13T04:38:08.488Z,15.84
2018-09-13T04:40:01.388Z,15.92
2018-09-13T04:41:01.418Z,15.84
2018-09-13T04:42:54.385Z,15.92
2018-09-13T04:43:54.356Z,15.90
2018-09-13T04:45:47.269Z,15.92
2018-09-13T04:46:47.292Z,15.87
2018-09-13T04:48:40.219Z,15.94
2018-09-13T04:49:40.195Z,15.87
2018-09-13T04:51:33.672Z,15.74
2018-09-13T04:52:33.129Z,15.80
2018-09-13T04:54:26.046Z,15.76
2018-09-13T04:55:26.073Z,15.80
2018-09-13T04:57:19.050Z,15.76
2018-09-13T04:58:19.008Z,15.80
2018-09-13T05:00:11.956Z,15.76
2018-09-13T05:01:11.916Z,15.76
2018-09-13T05:03:04.912Z,15.64
2018-09-13T05:04:04.847Z,15.68
2018-09-13T05:05:57.768Z,15.68
2018-09-13T05:06:57.779Z,15.71
2018-09-13T05:08:50.727Z,15.72
2018-09-13T05:09:50.691Z,15.71
2018-09-13T05:11:43.680Z,15.64
2018-09-13T05:12:43.643Z,15.67
2018-09-13T05:14:36.520Z,15.64
2018-09-13T05:15:36.552Z,15.71
2018-09-13T05:17:29.531Z,15.69
2018-09-13T05:18:29.467Z,15.69
2018-09-13T05:20:22.386Z,15.69
2018-09-13T05:21:22.410Z,15.57
2018-09-13T05:23:15.397Z,15.74
2018-09-13T05:24:15.352Z,15.82
2018-09-13T05:26:08.258Z,15.78
2018-09-13T05:27:08.266Z,15.84
2018-09-13T05:29:01.234Z,15.75
2018-09-13T05:30:01.174Z,15.71
2018-09-13T05:31:54.076Z,15.83
2018-09-13T05:32:54.103Z,15.78
2018-09-13T05:34:47.094Z,15.74
2018-09-13T05:35:47.029Z,15.78
2018-09-13T05:37:39.984Z,15.87
2018-09-13T05:38:39.954Z,15.84
2018-09-13T05:40:32.846Z,15.93
2018-09-13T05:41:32.901Z,15.92
2018-09-13T05:43:25.803Z,15.90
2018-09-13T05:44:25.862Z,15.82
2018-09-13T05:46:18.718Z,15.76
2018-09-13T05:47:18.725Z,15.71
2018-09-13T05:49:11.704Z,15.65
2018-09-13T05:50:11.651Z,15.68
2018-09-13T05:52:04.577Z,15.64
2018-09-13T05:53:04.596Z,15.64
2018-09-13T05:54:58.515Z,15.64
2018-09-13T05:55:58.502Z,15.71
2018-09-13T05:57:51.450Z,15.65
2018-09-13T05:58:51.465Z,15.71
2018-09-13T06:00:44.324Z,15.56
2018-09-13T06:01:44.347Z,15.62
2018-09-13T06:03:37.322Z,15.57
2018-09-13T06:04:37.252Z,15.60
2018-09-13T06:06:30.185Z,15.50
2018-09-13T06:07:30.206Z,15.49
2018-09-13T06:09:23.172Z,15.50
2018-09-13T06:10:23.131Z,15.41
2018-09-13T06:12:17.032Z,15.38
2018-09-13T06:13:17.060Z,15.35
2018-09-13T06:15:09.933Z,15.39
2018-09-13T06:16:09.983Z,15.31
2018-09-13T06:18:02.881Z,15.38
2018-09-13T06:19:02.909Z,15.34
2018-09-13T06:20:55.861Z,15.34
2018-09-13T06:21:55.834Z,15.36
2018-09-13T06:23:48.756Z,15.34
2018-09-13T06:24:48.768Z,15.32
2018-09-13T06:26:41.630Z,15.41
2018-09-13T06:27:41.686Z,15.46
2018-09-13T06:29:34.755Z,15.43
2018-09-13T06:30:34.606Z,15.46
2018-09-13T06:32:27.473Z,15.36
2018-09-13T06:33:27.568Z,15.49
2018-09-13T06:35:20.457Z,15.39
2018-09-13T06:36:20.514Z,15.39
2018-09-13T06:38:13.324Z,15.39
2018-09-13T06:39:13.393Z,15.46
2018-09-13T06:41:06.291Z,15.39
2018-09-13T06:42:06.338Z,15.39
2018-09-13T06:43:59.230Z,15.49
2018-09-13T06:44:59.244Z,15.44
2018-09-13T06:46:52.119Z,15.43
2018-09-13T06:47:52.185Z,15.51
2018-09-13T06:49:45.125Z,15.60
2018-09-13T06:50:45.107Z,15.65
2018-09-13T06:52:37.985Z,15.68
2018-09-13T06:53:38.042Z,15.68
2018-09-13T06:55:31.000Z,15.69
2018-09-13T06:56:30.947Z,15.74
2018-09-13T06:58:23.899Z,15.75
2018-09-13T06:59:23.891Z,15.89
2018-09-13T07:01:16.780Z,15.78
2018-09-13T07:02:16.783Z,15.83
2018-09-13T07:04:09.709Z,15.80
2018-09-13T07:05:09.739Z,15.80
2018-09-13T07:07:02.728Z,15.78
2018-09-13T07:08:02.672Z,15.80
2018-09-13T07:09:55.632Z,15.97
2018-09-13T07:10:55.617Z,15.93
2018-09-13T07:12:48.528Z,15.90
2018-09-13T07:13:48.509Z,15.76
2018-09-13T07:15:42.470Z,15.89
2018-09-13T07:16:41.469Z,15.89
2018-09-13T07:18:34.551Z,15.94
2018-09-13T07:19:34.559Z,15.94
2018-09-13T07:21:27.534Z,15.96
2018-09-13T07:22:27.505Z,15.90
2018-09-13T07:24:20.413Z,16.00
2018-09-13T07:25:20.448Z,16.08
2018-09-13T07:27:13.419Z,15.96
2018-09-13T07:28:13.357Z,16.00
2018-09-13T07:30:06.271Z,16.07
2018-09-13T07:31:06.290Z,16.02
2018-09-13T07:32:59.224Z,16.27
2018-09-13T07:33:59.236Z,16.24
2018-09-13T07:35:52.130Z,16.43
2018-09-13T07:36:52.203Z,16.49
2018-09-13T07:38:45.079Z,16.58
2018-09-13T07:39:45.093Z,16.71
2018-09-13T07:41:38.032Z,16.85
2018-09-13T07:42:38.033Z,16.93
2018-09-13T07:44:30.902Z,17.00
2018-09-13T07:45:31.469Z,17.08
2018-09-13T07:47:23.899Z,17.12
2018-09-13T07:48:23.854Z,17.26
2018-09-13T07:50:16.794Z,17.43
2018-09-13T07:51:16.828Z,17.38
2018-09-13T07:53:09.803Z,17.46
2018-09-13T07:54:09.758Z,17.37
2018-09-13T07:56:02.815Z,17.52
2018-09-13T07:57:02.859Z,17.54
2018-09-13T07:58:55.830Z,17.63
2018-09-13T07:59:55.785Z,17.75
2018-09-13T08:01:48.761Z,17.75
2018-09-13T08:02:48.732Z,17.79
2018-09-13T08:04:41.658Z,17.78
2018-09-13T08:05:41.767Z,17.84
2018-09-13T08:07:34.670Z,18.00
2018-09-13T08:08:34.624Z,17.99
2018-09-13T08:10:27.543Z,18.15
2018-09-13T08:11:27.553Z,18.07
2018-09-13T08:13:21.573Z,18.14
2018-09-13T08:14:21.530Z,18.26
2018-09-13T08:16:14.955Z,18.30
2018-09-13T08:17:14.441Z,18.25
2018-09-13T08:19:07.380Z,18.26
2018-09-13T08:20:07.384Z,18.12
2018-09-13T08:22:00.288Z,18.00
2018-09-13T08:23:00.280Z,17.97
2018-09-13T08:24:53.204Z,18.15
2018-09-13T08:25:53.270Z,18.08
2018-09-13T08:27:46.162Z,18.12
2018-09-13T08:28:46.149Z,18.12
2018-09-13T08:30:39.056Z,18.08
2018-09-13T08:31:39.082Z,18.11
2018-09-13T08:33:32.037Z,18.18
2018-09-13T08:34:32.031Z,18.05
2018-09-13T08:36:24.935Z,18.07
2018-09-13T08:37:24.962Z,18.00
2018-09-13T08:39:17.880Z,17.96
2018-09-13T08:40:17.903Z,17.99
2018-09-13T08:42:10.806Z,17.93
2018-09-13T08:43:10.880Z,17.95
2018-09-13T08:45:03.749Z,17.96
2018-09-13T08:46:03.764Z,17.99
2018-09-13T08:47:56.684Z,17.90
2018-09-13T08:48:56.694Z,17.71
2018-09-13T08:50:49.609Z,17.68
2018-09-13T08:51:49.628Z,17.62
2018-09-13T08:53:42.551Z,17.44
2018-09-13T08:54:42.566Z,17.44
2018-09-13T08:56:35.476Z,17.56
2018-09-13T08:57:35.497Z,17.55
2018-09-13T08:59:28.420Z,17.68
2018-09-13T09:00:28.431Z,17.58
2018-09-13T09:02:21.341Z,17.63
2018-09-13T09:03:21.362Z,17.70
2018-09-13T09:05:14.281Z,17.77
2018-09-13T09:06:14.326Z,17.81
2018-09-13T09:08:07.224Z,17.87
2018-09-13T09:09:07.231Z,17.99
2018-09-13T09:11:00.140Z,17.92
2018-09-13T09:12:00.251Z,17.96
2018-09-13T09:13:53.086Z,18.00
2018-09-13T09:14:53.092Z,18.17
2018-09-13T09:16:46.006Z,18.12
2018-09-13T09:17:46.030Z,18.08
2018-09-13T09:19:38.951Z,18.08
2018-09-13T09:20:38.965Z,18.02
2018-09-13T09:22:31.887Z,17.95
2018-09-13T09:23:31.902Z,17.92
2018-09-13T09:25:24.835Z,17.97
2018-09-13T09:26:24.848Z,18.05
2018-09-13T09:28:17.762Z,17.93
2018-09-13T09:29:17.842Z,18.10
2018-09-13T09:31:10.701Z,18.10
2018-09-13T09:32:10.717Z,18.15
2018-09-13T09:34:03.647Z,18.12
2018-09-13T09:35:03.749Z,18.25
2018-09-13T09:36:56.561Z,18.26
2018-09-13T09:37:56.580Z,18.18
2018-09-13T09:39:49.509Z,18.21
2018-09-13T09:40:49.517Z,18.18
2018-09-13T09:42:42.427Z,18.02
2018-09-13T09:43:42.450Z,18.00
2018-09-13T09:45:35.374Z,18.17
2018-09-13T09:46:35.382Z,18.25
2018-09-13T09:48:28.292Z,18.25
2018-09-13T09:49:28.316Z,18.30
2018-09-13T09:51:21.235Z,18.35
2018-09-13T09:52:21.310Z,18.35
2018-09-13T09:54:14.162Z,18.25
2018-09-13T09:55:14.195Z,18.08
2018-09-13T09:57:07.104Z,18.14
2018-09-13T09:58:07.120Z,18.05
2018-09-13T10:00:00.041Z,18.03
2018-09-13T10:01:00.049Z,18.21
2018-09-13T10:02:53.001Z,18.27
2018-09-13T10:03:52.985Z,18.50
2018-09-13T10:05:45.904Z,18.67
2018-09-13T10:06:46.454Z,18.52
2018-09-13T10:08:38.828Z,18.52
2018-09-13T10:09:38.899Z,18.55
2018-09-13T10:11:31.777Z,18.78
2018-09-13T10:12:31.789Z,18.69
2018-09-13T10:14:24.713Z,18.75
2018-09-13T10:15:24.726Z,18.84
2018-09-13T10:17:17.648Z,18.94
2018-09-13T10:18:17.659Z,19.02
2018-09-13T10:20:11.576Z,18.99
2018-09-13T10:21:11.591Z,19.11
2018-09-13T10:23:04.519Z,18.95
2018-09-13T10:24:04.535Z,18.84
2018-09-13T10:25:57.454Z,18.76
2018-09-13T10:26:57.515Z,18.62
2018-09-13T10:28:50.383Z,18.72
2018-09-13T10:29:50.491Z,18.78
2018-09-13T10:31:44.318Z,18.81
2018-09-13T10:32:44.373Z,19.00
2018-09-13T10:34:37.250Z,19.21
2018-09-13T10:35:37.274Z,19.25
2018-09-13T10:37:30.190Z,19.28
2018-09-13T10:38:30.208Z,19.26
2018-09-13T10:40:23.124Z,19.26
2018-09-13T10:41:23.181Z,19.21
2018-09-13T10:43:16.065Z,19.37
2018-09-13T10:44:16.080Z,19.43
2018-09-13T10:46:09.003Z,19.41
2018-09-13T10:47:09.015Z,19.50
2018-09-13T10:49:01.936Z,19.33
2018-09-13T10:50:01.981Z,19.44
2018-09-13T10:51:54.877Z,19.33
2018-09-13T10:52:54.927Z,19.32
2018-09-13T10:54:47.813Z,19.39
2018-09-13T10:55:47.890Z,19.39
2018-09-13T10:57:40.755Z,19.37
2018-09-13T10:58:40.871Z,19.44
2018-09-13T11:00:33.683Z,19.51
2018-09-13T11:01:33.707Z,19.43
2018-09-13T11:03:26.632Z,19.41
2018-09-13T11:04:26.726Z,19.36
2018-09-13T11:06:19.559Z,19.28
2018-09-13T11:07:19.668Z,19.33
2018-09-13T11:09:12.510Z,19.37
2018-09-13T11:10:12.524Z,19.41
2018-09-13T11:12:05.444Z,19.37
2018-09-13T11:13:05.457Z,19.39
2018-09-13T11:14:59.568Z,19.39
2018-09-13T11:15:59.589Z,19.36
2018-09-13T11:17:52.514Z,19.37
2018-09-13T11:18:52.539Z,19.33
2018-09-13T11:20:45.441Z,19.36
2018-09-13T11:21:45.514Z,19.28
2018-09-13T11:23:38.384Z,19.16
2018-09-13T11:24:38.430Z,19.22
2018-09-13T11:26:31.314Z,19.25
2018-09-13T11:27:31.333Z,19.28
2018-09-13T11:29:24.262Z,19.29
2018-09-13T11:30:24.276Z,19.31
2018-09-13T11:32:17.678Z,19.48
2018-09-13T11:33:17.700Z,19.55
2018-09-13T11:35:10.621Z,19.55
2018-09-13T11:36:10.640Z,19.50
2018-09-13T11:38:03.562Z,19.56
2018-09-13T11:39:03.585Z,19.73
2018-09-13T11:40:56.695Z,19.91
2018-09-13T11:41:56.511Z,19.88
2018-09-13T11:43:49.497Z,19.95
2018-09-13T11:44:49.452Z,19.94
2018-09-13T11:46:42.375Z,20.03
2018-09-13T11:47:42.402Z,20.05
2018-09-13T11:49:35.324Z,20.14
2018-09-13T11:50:35.373Z,20.08
2018-09-13T11:52:28.291Z,20.14
2018-09-13T11:53:28.302Z,20.13
2018-09-13T11:55:22.223Z,20.10
2018-09-13T11:56:22.238Z,20.13
2018-09-13T11:58:15.167Z,20.08
2018-09-13T11:59:15.178Z,19.91
2018-09-13T12:01:08.138Z,19.95
2018-09-13T12:02:08.235Z,20.08
2018-09-13T12:04:01.277Z,20.16
2018-09-13T12:05:01.291Z,20.16
2018-09-13T12:06:54.209Z,20.14
2018-09-13T12:07:54.235Z,20.16
2018-09-13T12:09:47.155Z,20.14
2018-09-13T12:10:47.172Z,20.02
2018-09-13T12:12:40.084Z,19.96
2018-09-13T12:13:40.108Z,19.87
2018-09-13T12:15:33.032Z,20.10
2018-09-13T12:16:33.043Z,20.08
2018-09-13T12:18:26.009Z,20.16
2018-09-13T12:19:25.983Z,20.35
2018-09-13T12:21:19.900Z,20.38
2018-09-13T12:22:19.970Z,20.50
2018-09-13T12:24:12.839Z,20.43
2018-09-13T12:25:12.855Z,20.51
2018-09-13T12:27:05.773Z,20.64
2018-09-13T12:28:05.793Z,20.59
2018-09-13T12:29:58.715Z,20.57
2018-09-13T12:30:58.731Z,20.58
2018-09-13T12:32:51.646Z,20.43
2018-09-13T12:33:51.675Z,20.51
2018-09-13T12:35:44.592Z,20.42
2018-09-13T12:36:44.608Z,20.50
2018-09-13T12:38:37.530Z,20.42
2018-09-13T12:39:37.556Z,20.47
2018-09-13T12:41:30.476Z,20.33
2018-09-13T12:42:30.492Z,20.29
2018-09-13T12:44:23.423Z,20.26
2018-09-13T12:45:23.445Z,20.14
2018-09-13T12:47:16.349Z,20.31
2018-09-13T12:48:16.365Z,20.42
2018-09-13T12:50:09.343Z,20.61
2018-09-13T12:51:09.343Z,20.59
2018-09-13T12:53:02.248Z,20.67
2018-09-13T12:54:02.264Z,20.76
2018-09-13T12:55:55.188Z,20.87
2018-09-13T12:56:55.245Z,20.98
2018-09-13T12:58:48.120Z,20.87
2018-09-13T12:59:48.140Z,20.85
2018-09-13T13:01:41.063Z,20.77
2018-09-13T13:02:41.083Z,20.58
2018-09-13T13:04:33.992Z,20.61
2018-09-13T13:05:34.017Z,20.50
2018-09-13T13:07:26.938Z,20.58
2018-09-13T13:08:26.955Z,20.58
2018-09-13T13:10:19.889Z,20.70
2018-09-13T13:11:19.902Z,20.70
2018-09-13T13:13:12.828Z,20.67
2018-09-13T13:14:12.849Z,20.67
2018-09-13T13:16:05.772Z,20.74
2018-09-13T13:17:05.780Z,20.89
2018-09-13T13:18:58.716Z,21.04
2018-09-13T13:19:58.741Z,20.94
2018-09-13T13:21:51.677Z,20.94
2018-09-13T13:22:51.682Z,20.92
2018-09-13T13:24:44.599Z,20.87
2018-09-13T13:25:44.622Z,20.87
2018-09-13T13:27:37.679Z,20.84
2018-09-13T13:28:37.563Z,20.84
2018-09-13T13:30:30.475Z,20.76
2018-09-13T13:31:30.496Z,20.74
2018-09-13T13:33:23.422Z,20.87
2018-09-13T13:34:23.437Z,20.94
2018-09-13T13:36:16.394Z,21.06
2018-09-13T13:37:16.378Z,21.17
2018-09-13T13:39:09.303Z,21.28
2018-09-13T13:40:09.317Z,21.42
2018-09-13T13:42:02.248Z,21.54
2018-09-13T13:43:02.265Z,21.58
2018-09-13T13:44:55.175Z,21.59
2018-09-13T13:45:55.197Z,21.54
2018-09-13T13:47:48.122Z,21.38
2018-09-13T13:48:48.136Z,21.32
2018-09-13T13:50:41.049Z,21.42
2018-09-13T13:51:41.075Z,21.47
2018-09-13T13:53:34.000Z,21.65
2018-09-13T13:54:34.016Z,21.82
2018-09-13T13:56:26.932Z,21.75
2018-09-13T13:57:26.957Z,21.72
2018-09-13T13:59:19.881Z,21.67
2018-09-13T14:00:19.895Z,21.68
2018-09-13T14:02:12.827Z,21.79
2018-09-13T14:03:12.838Z,21.79
2018-09-13T14:05:05.762Z,21.68
2018-09-13T14:06:05.779Z,21.79
2018-09-13T14:07:58.726Z,21.65
2018-09-13T14:08:58.716Z,21.67
2018-09-13T14:10:51.632Z,21.75
2018-09-13T14:11:51.648Z,21.75
2018-09-13T14:13:44.579Z,22.05
2018-09-13T14:14:44.595Z,21.99
2018-09-13T14:16:37.511Z,21.84
2018-09-13T14:17:37.534Z,21.83
2018-09-13T14:19:30.491Z,21.83
2018-09-13T14:20:30.562Z,21.75
2018-09-13T14:22:23.404Z,21.77
2018-09-13T14:23:23.438Z,21.83
2018-09-13T14:25:16.397Z,21.92
2018-09-13T14:26:16.375Z,21.91
2018-09-13T14:28:09.310Z,21.98
2018-09-13T14:29:09.317Z,22.02
2018-09-13T14:31:02.296Z,21.99
2018-09-13T14:32:02.348Z,21.98
2018-09-13T14:33:55.201Z,22.12
2018-09-13T14:34:55.216Z,22.09
2018-09-13T14:36:48.176Z,22.02
2018-09-13T14:37:48.189Z,21.94
2018-09-13T14:39:41.112Z,21.92
2018-09-13T14:40:41.153Z,21.79
2018-09-13T14:42:34.042Z,21.65
2018-09-13T14:43:34.080Z,21.59
2018-09-13T14:45:26.990Z,21.54
2018-09-13T14:46:27.008Z,21.68
2018-09-13T14:48:19.921Z,21.64
2018-09-13T14:49:19.992Z,21.67
2018-09-13T14:51:12.885Z,21.72
2018-09-13T14:52:12.893Z,21.77
2018-09-13T14:54:05.810Z,21.72
2018-09-13T14:55:05.837Z,21.69
2018-09-13T14:56:58.788Z,21.53
2018-09-13T14:57:58.793Z,21.37
2018-09-13T14:59:51.700Z,21.29
2018-09-13T15:00:51.710Z,21.31
2018-09-13T15:02:44.655Z,21.38
2018-09-13T15:03:45.222Z,21.40
2018-09-13T15:05:37.616Z,21.47
2018-09-13T15:06:37.622Z,21.31
2018-09-13T15:08:30.560Z,21.14
2018-09-13T15:09:30.560Z,21.28
2018-09-13T15:11:23.508Z,21.29
2018-09-13T15:12:23.525Z,21.25
2018-09-13T15:14:16.445Z,21.53
2018-09-13T15:15:16.488Z,21.52
2018-09-13T15:17:09.402Z,21.61
2018-09-13T15:18:09.420Z,21.28
2018-09-13T15:20:02.380Z,21.44
2018-09-13T15:21:02.353Z,21.43
2018-09-13T15:22:55.264Z,21.21
2018-09-13T15:23:55.286Z,21.25
2018-09-13T15:25:48.210Z,21.22
2018-09-13T15:26:48.226Z,21.13
2018-09-13T15:28:41.138Z,21.17
2018-09-13T15:29:41.162Z,21.13
2018-09-13T15:31:34.088Z,21.22
2018-09-13T15:32:34.111Z,21.24
2018-09-13T15:34:27.021Z,20.97
2018-09-13T15:35:27.048Z,20.98
2018-09-13T15:37:19.971Z,21.06
2018-09-13T15:38:19.983Z,21.10
2018-09-13T15:40:12.909Z,21.24
2018-09-13T15:41:12.923Z,21.16
2018-09-13T15:43:05.867Z,21.19
2018-09-13T15:44:05.873Z,21.22
2018-09-13T15:45:58.831Z,21.19
2018-09-13T15:46:58.793Z,21.28
2018-09-13T15:48:51.723Z,21.16
2018-09-13T15:49:51.742Z,21.16
2018-09-13T15:51:44.666Z,21.07
2018-09-13T15:52:44.730Z,21.01
2018-09-13T15:54:37.603Z,21.01
2018-09-13T15:55:37.632Z,21.14
2018-09-13T15:57:30.543Z,21.01
2018-09-13T15:58:30.558Z,21.04
2018-09-13T16:00:23.636Z,20.99
2018-09-13T16:01:23.663Z,20.98
2018-09-13T16:03:16.589Z,20.91
2018-09-13T16:04:16.602Z,20.88
2018-09-13T16:06:09.527Z,20.85
2018-09-13T16:07:09.541Z,20.85
2018-09-13T16:09:02.460Z,20.70
2018-09-13T16:10:02.482Z,20.55
2018-09-13T16:11:55.398Z,20.54
2018-09-13T16:12:55.429Z,20.55
2018-09-13T16:14:48.329Z,20.54
2018-09-13T16:15:48.348Z,20.57
2018-09-13T16:17:41.279Z,20.64
2018-09-13T16:18:41.289Z,20.70
2018-09-13T16:20:34.200Z,20.73
2018-09-13T16:21:34.226Z,20.77
2018-09-13T16:23:27.162Z,20.85
2018-09-13T16:24:27.173Z,20.77
2018-09-13T16:26:20.101Z,20.85
2018-09-13T16:27:20.110Z,20.87
2018-09-13T16:29:13.032Z,20.87
2018-09-13T16:30:13.043Z,20.80
2018-09-13T16:32:05.977Z,20.84
2018-09-13T16:33:05.990Z,20.79
2018-09-13T16:34:58.983Z,20.73
2018-09-13T16:35:58.912Z,20.67
2018-09-13T16:37:52.841Z,20.50
2018-09-13T16:38:52.883Z,20.48
2018-09-13T16:40:45.768Z,20.57
2018-09-13T16:41:45.791Z,20.55
2018-09-13T16:43:38.714Z,20.51
2018-09-13T16:44:38.732Z,20.55
2018-09-13T16:46:31.640Z,20.55
2018-09-13T16:47:31.757Z,20.48
2018-09-13T16:49:24.622Z,20.41
2018-09-13T16:50:24.600Z,20.39
2018-09-13T16:52:17.513Z,20.50
2018-09-13T16:53:17.539Z,20.38
2018-09-13T16:55:10.709Z,20.43
2018-09-13T16:56:10.723Z,20.50
2018-09-13T16:58:03.642Z,20.50
2018-09-13T16:59:03.659Z,20.58
2018-09-13T17:00:56.576Z,20.52
2018-09-13T17:01:56.610Z,20.42
2018-09-13T17:03:49.521Z,20.59
2018-09-13T17:04:49.535Z,20.59
2018-09-13T17:06:42.448Z,20.57
2018-09-13T17:07:42.508Z,20.58
2018-09-13T17:09:35.400Z,20.48
2018-09-13T17:10:35.403Z,20.39
2018-09-13T17:12:28.318Z,20.51
2018-09-13T17:13:28.371Z,20.36
2018-09-13T17:15:21.267Z,20.28
2018-09-13T17:16:21.278Z,20.28
2018-09-13T17:18:14.213Z,20.16
2018-09-13T17:19:14.213Z,20.18
2018-09-13T17:21:07.128Z,20.14
2018-09-13T17:22:07.148Z,20.14
2018-09-13T17:24:00.070Z,20.06
2018-09-13T17:25:00.084Z,20.10
2018-09-13T17:26:53.040Z,20.02
2018-09-13T17:27:53.015Z,19.99
2018-09-13T17:29:45.939Z,19.91
2018-09-13T17:30:45.949Z,19.83
2018-09-13T17:32:38.872Z,19.83
2018-09-13T17:33:38.939Z,19.86
2018-09-13T17:35:31.813Z,19.69
2018-09-13T17:36:31.823Z,19.66
2018-09-13T17:38:24.734Z,19.54
2018-09-13T17:39:24.756Z,19.46
2018-09-13T17:41:17.683Z,19.39
2018-09-13T17:42:17.688Z,19.37
2018-09-13T17:44:10.611Z,19.40
2018-09-13T17:45:10.622Z,19.32
2018-09-13T17:47:03.536Z,19.26
2018-09-13T17:48:03.624Z,19.26
2018-09-13T17:49:56.476Z,19.16
2018-09-13T17:50:56.490Z,19.13
2018-09-13T17:52:49.397Z,18.98
2018-09-13T17:53:49.418Z,18.95
2018-09-13T17:55:42.353Z,18.82
2018-09-13T17:56:42.344Z,18.88
2018-09-13T17:58:35.259Z,18.76
2018-09-13T17:59:35.284Z,18.66
2018-09-13T18:01:28.204Z,18.58
2018-09-13T18:02:28.215Z,18.60
2018-09-13T18:04:21.133Z,18.47
2018-09-13T18:05:21.148Z,18.54
2018-09-13T18:07:14.064Z,18.47
2018-09-13T18:08:14.071Z,18.36
2018-09-13T18:10:07.001Z,18.35
2018-09-13T18:11:07.065Z,18.25
2018-09-13T18:12:59.921Z,18.14
2018-09-13T18:13:59.942Z,18.12
2018-09-13T18:15:52.936Z,18.10
2018-09-13T18:16:52.886Z,18.03
2018-09-13T18:18:45.777Z,18.07
2018-09-13T18:19:45.798Z,17.99
2018-09-13T18:21:38.718Z,17.97
2018-09-13T18:22:38.734Z,17.89
2018-09-13T18:24:31.640Z,17.79
2018-09-13T18:25:31.668Z,17.79
2018-09-13T18:27:24.579Z,17.74
2018-09-13T18:28:24.590Z,17.71
2018-09-13T18:30:17.518Z,17.71
2018-09-13T18:31:17.580Z,17.71
2018-09-13T18:33:10.453Z,17.59